sensor_id;sensor_type;location;lat;lon;timestamp;temperature;humidity
15969;DHT22;8085;53.472;9.794;2023-01-01T00:01:19;15.40;1.00
15969;DHT22;8085;53.472;9.794;2023-01-01T00:03:48;15.30;1.00
15969;DHT22;8085;53.472;9.794;2023-01-01T00:06:15;15.40;1.00
15969;DHT22;8085;53.472;9.794;2023-01-01T00:08:43;15.50;1.00
15969;DHT22;8085;53.472;9.794;2023-01-01T00:11:10;15.40;1.00
15969;DHT22;8085;53.472;9.794;2023-01-01T00:13:39;15.50;1.00
15969;DHT22;8085;53.472;9.794;2023-01-01T00:16:07;15.50;1.00
15969;DHT22;8085;53.472;9.794;2023-01-01T00:18:35;15.40;1.00
15969;DHT22;8085;53.472;9.794;2023-01-01T00:21:03;15.40;1.00
15969;DHT22;8085;53.472;9.794;2023-01-01T00:23:30;15.40;1.00
15969;DHT22;8085;53.472;9.794;2023-01-01T00:25:58;15.30;1.00
15969;DHT22;8085;53.472;9.794;2023-01-01T00:28:26;15.40;1.00
15969;DHT22;8085;53.472;9.794;2023-01-01T00:30:53;15.40;1.00
15969;DHT22;8085;53.472;9.794;2023-01-01T00:33:19;15.40;1.00
15969;DHT22;8085;53.472;9.794;2023-01-01T00:35:46;15.40;1.00
15969;DHT22;8085;53.472;9.794;2023-01-01T00:38:13;15.50;1.00
15969;DHT22;8085;53.472;9.794;2023-01-01T00:40:40;15.50;1.00
15969;DHT22;8085;53.472;9.794;2023-01-01T00:43:08;15.50;1.00
15969;DHT22;8085;53.472;9.794;2023-01-01T00:45:35;15.50;1.00
15969;DHT22;8085;53.472;9.794;2023-01-01T00:48:02;15.40;1.00
15969;DHT22;8085;53.472;9.794;2023-01-01T00:50:29;15.40;1.00
15969;DHT22;8085;53.472;9.794;2023-01-01T00:52:55;15.50;1.00
15969;DHT22;8085;53.472;9.794;2023-01-01T00:55:22;15.40;1.00
15969;DHT22;8085;53.472;9.794;2023-01-01T00:57:49;15.50;1.00
15969;DHT22;8085;53.472;9.794;2023-01-01T01:00:17;15.40;1.00
15969;DHT22;8085;53.472;9.794;2023-01-01T01:02:44;15.50;1.00
15969;DHT22;8085;53.472;9.794;2023-01-01T01:05:11;15.60;1.00
15969;DHT22;8085;53.472;9.794;2023-01-01T01:07:38;15.60;1.00
15969;DHT22;8085;53.472;9.794;2023-01-01T01:10:06;15.60;1.00
15969;DHT22;8085;53.472;9.794;2023-01-01T01:12:34;15.50;1.00
15969;DHT22;8085;53.472;9.794;2023-01-01T01:15:01;15.50;1.00
15969;DHT22;8085;53.472;9.794;2023-01-01T01:17:30;15.50;1.00
15969;DHT22;8085;53.472;9.794;2023-01-01T01:19:57;15.50;1.00
15969;DHT22;8085;53.472;9.794;2023-01-01T01:22:23;15.50;1.00
15969;DHT22;8085;53.472;9.794;2023-01-01T01:24:50;15.50;1.00
15969;DHT22;8085;53.472;9.794;2023-01-01T01:27:17;15.60;1.00
15969;DHT22;8085;53.472;9.794;2023-01-01T01:29:44;15.60;99.90
15969;DHT22;8085;53.472;9.794;2023-01-01T01:32:11;15.60;99.90
15969;DHT22;8085;53.472;9.794;2023-01-01T01:34:39;15.60;99.90
15969;DHT22;8085;53.472;9.794;2023-01-01T01:37:06;15.50;1.00
15969;DHT22;8085;53.472;9.794;2023-01-01T01:39:33;15.60;1.00
15969;DHT22;8085;53.472;9.794;2023-01-01T01:42:01;15.50;1.00
15969;DHT22;8085;53.472;9.794;2023-01-01T01:44:56;15.50;1.00
15969;DHT22;8085;53.472;9.794;2023-01-01T01:47:28;15.50;1.00
15969;DHT22;8085;53.472;9.794;2023-01-01T01:50:03;15.70;99.90
15969;DHT22;8085;53.472;9.794;2023-01-01T01:52:31;15.70;99.90
15969;DHT22;8085;53.472;9.794;2023-01-01T01:55:00;15.60;99.90
15969;DHT22;8085;53.472;9.794;2023-01-01T01:57:28;15.60;99.90
15969;DHT22;8085;53.472;9.794;2023-01-01T01:59:56;15.60;99.90
15969;DHT22;8085;53.472;9.794;2023-01-01T02:02:31;15.60;99.90
15969;DHT22;8085;53.472;9.794;2023-01-01T02:04:59;15.60;99.90
15969;DHT22;8085;53.472;9.794;2023-01-01T02:07:28;15.80;99.90
15969;DHT22;8085;53.472;9.794;2023-01-01T02:09:56;15.70;99.90
15969;DHT22;8085;53.472;9.794;2023-01-01T02:12:23;15.70;99.90
15969;DHT22;8085;53.472;9.794;2023-01-01T02:14:51;15.70;99.90
15969;DHT22;8085;53.472;9.794;2023-01-01T02:17:22;15.70;99.90
15969;DHT22;8085;53.472;9.794;2023-01-01T02:20:10;15.70;99.90
15969;DHT22;8085;53.472;9.794;2023-01-01T02:22:56;15.80;99.90
15969;DHT22;8085;53.472;9.794;2023-01-01T02:25:37;15.80;99.90
15969;DHT22;8085;53.472;9.794;2023-01-01T02:28:14;15.80;99.90
15969;DHT22;8085;53.472;9.794;2023-01-01T02:30:47;15.70;99.90
15969;DHT22;8085;53.472;9.794;2023-01-01T02:33:17;15.70;99.90
15969;DHT22;8085;53.472;9.794;2023-01-01T02:35:49;15.60;99.90
15969;DHT22;8085;53.472;9.794;2023-01-01T02:38:22;15.60;99.90
15969;DHT22;8085;53.472;9.794;2023-01-01T02:40:52;15.60;99.90
15969;DHT22;8085;53.472;9.794;2023-01-01T02:43:20;15.60;99.90
15969;DHT22;8085;53.472;9.794;2023-01-01T02:45:48;15.50;1.00
15969;DHT22;8085;53.472;9.794;2023-01-01T02:48:39;15.50;1.00
15969;DHT22;8085;53.472;9.794;2023-01-01T02:51:27;15.30;1.00
15969;DHT22;8085;53.472;9.794;2023-01-01T02:54:00;15.00;1.00
15969;DHT22;8085;53.472;9.794;2023-01-01T02:56:35;15.00;1.00
15969;DHT22;8085;53.472;9.794;2023-01-01T02:59:14;15.10;1.00
15969;DHT22;8085;53.472;9.794;2023-01-01T03:02:15;15.10;1.00
15969;DHT22;8085;53.472;9.794;2023-01-01T03:04:57;15.10;1.00
15969;DHT22;8085;53.472;9.794;2023-01-01T03:07:35;15.10;1.00
15969;DHT22;8085;53.472;9.794;2023-01-01T03:10:10;15.00;1.00
15969;DHT22;8085;53.472;9.794;2023-01-01T03:12:44;15.00;1.00
15969;DHT22;8085;53.472;9.794;2023-01-01T03:15:21;14.90;1.00
15969;DHT22;8085;53.472;9.794;2023-01-01T03:17:56;14.80;1.00
15969;DHT22;8085;53.472;9.794;2023-01-01T03:20:26;14.80;1.00
15969;DHT22;8085;53.472;9.794;2023-01-01T03:22:59;14.90;1.00
15969;DHT22;8085;53.472;9.794;2023-01-01T03:25:30;14.80;1.00
15969;DHT22;8085;53.472;9.794;2023-01-01T03:28:01;14.70;1.00
15969;DHT22;8085;53.472;9.794;2023-01-01T03:30:30;14.80;1.00
15969;DHT22;8085;53.472;9.794;2023-01-01T03:33:02;14.80;1.00
15969;DHT22;8085;53.472;9.794;2023-01-01T03:35:37;14.80;1.00
15969;DHT22;8085;53.472;9.794;2023-01-01T03:38:09;14.70;1.00
15969;DHT22;8085;53.472;9.794;2023-01-01T03:40:38;14.80;1.00
15969;DHT22;8085;53.472;9.794;2023-01-01T03:43:10;14.80;1.00
15969;DHT22;8085;53.472;9.794;2023-01-01T03:45:42;14.80;1.00
15969;DHT22;8085;53.472;9.794;2023-01-01T03:48:11;14.80;1.00
15969;DHT22;8085;53.472;9.794;2023-01-01T03:50:47;14.80;1.00
15969;DHT22;8085;53.472;9.794;2023-01-01T03:53:22;14.80;1.00
15969;DHT22;8085;53.472;9.794;2023-01-01T03:55:58;14.80;1.00
15969;DHT22;8085;53.472;9.794;2023-01-01T03:58:34;14.80;1.00
15969;DHT22;8085;53.472;9.794;2023-01-01T04:01:06;14.90;1.00
15969;DHT22;8085;53.472;9.794;2023-01-01T04:03:37;14.80;1.00
15969;DHT22;8085;53.472;9.794;2023-01-01T04:06:06;14.80;1.00
15969;DHT22;8085;53.472;9.794;2023-01-01T04:08:35;14.80;1.00
15969;DHT22;8085;53.472;9.794;2023-01-01T04:11:05;14.90;1.00
15969;DHT22;8085;53.472;9.794;2023-01-01T04:13:54;14.90;1.00
15969;DHT22;8085;53.472;9.794;2023-01-01T04:16:21;14.90;1.00
15969;DHT22;8085;53.472;9.794;2023-01-01T04:18:49;14.80;1.00
15969;DHT22;8085;53.472;9.794;2023-01-01T04:21:16;14.90;1.00
15969;DHT22;8085;53.472;9.794;2023-01-01T04:23:43;14.80;1.00
15969;DHT22;8085;53.472;9.794;2023-01-01T04:26:12;14.80;1.00
15969;DHT22;8085;53.472;9.794;2023-01-01T04:28:39;14.70;1.00
15969;DHT22;8085;53.472;9.794;2023-01-01T04:31:06;14.80;1.00
15969;DHT22;8085;53.472;9.794;2023-01-01T04:33:33;14.80;1.00
15969;DHT22;8085;53.472;9.794;2023-01-01T04:36:04;14.80;1.00
15969;DHT22;8085;53.472;9.794;2023-01-01T04:38:32;14.80;1.00
15969;DHT22;8085;53.472;9.794;2023-01-01T04:41:00;14.70;1.00
15969;DHT22;8085;53.472;9.794;2023-01-01T04:43:27;14.80;1.00
15969;DHT22;8085;53.472;9.794;2023-01-01T04:45:55;14.80;1.00
15969;DHT22;8085;53.472;9.794;2023-01-01T04:48:22;14.80;1.00
15969;DHT22;8085;53.472;9.794;2023-01-01T04:50:54;14.90;1.00
15969;DHT22;8085;53.472;9.794;2023-01-01T04:53:22;14.90;1.00
15969;DHT22;8085;53.472;9.794;2023-01-01T04:55:49;15.00;1.00
15969;DHT22;8085;53.472;9.794;2023-01-01T04:58:16;15.10;1.00
15969;DHT22;8085;53.472;9.794;2023-01-01T05:00:43;15.10;1.00
15969;DHT22;8085;53.472;9.794;2023-01-01T05:03:13;15.10;1.00
15969;DHT22;8085;53.472;9.794;2023-01-01T05:05:40;15.00;1.00
15969;DHT22;8085;53.472;9.794;2023-01-01T05:08:06;14.90;1.00
15969;DHT22;8085;53.472;9.794;2023-01-01T05:10:35;15.00;1.00
15969;DHT22;8085;53.472;9.794;2023-01-01T05:13:05;14.90;1.00
15969;DHT22;8085;53.472;9.794;2023-01-01T05:15:35;15.00;1.00
15969;DHT22;8085;53.472;9.794;2023-01-01T05:18:01;14.90;1.00
15969;DHT22;8085;53.472;9.794;2023-01-01T05:20:28;15.00;1.00
15969;DHT22;8085;53.472;9.794;2023-01-01T05:22:55;15.00;1.00
15969;DHT22;8085;53.472;9.794;2023-01-01T05:25:22;15.00;1.00
15969;DHT22;8085;53.472;9.794;2023-01-01T05:27:50;15.00;1.00
15969;DHT22;8085;53.472;9.794;2023-01-01T05:30:17;15.10;99.90
15969;DHT22;8085;53.472;9.794;2023-01-01T05:32:44;15.10;99.90
15969;DHT22;8085;53.472;9.794;2023-01-01T05:35:10;15.10;99.90
15969;DHT22;8085;53.472;9.794;2023-01-01T05:37:37;15.10;99.90
15969;DHT22;8085;53.472;9.794;2023-01-01T05:40:05;15.10;99.90
15969;DHT22;8085;53.472;9.794;2023-01-01T05:42:32;15.00;99.90
15969;DHT22;8085;53.472;9.794;2023-01-01T05:45:01;15.10;99.90
15969;DHT22;8085;53.472;9.794;2023-01-01T05:47:28;15.20;99.90
15969;DHT22;8085;53.472;9.794;2023-01-01T05:49:55;15.20;99.90
15969;DHT22;8085;53.472;9.794;2023-01-01T05:52:22;15.20;99.90
15969;DHT22;8085;53.472;9.794;2023-01-01T05:54:49;15.10;99.90
15969;DHT22;8085;53.472;9.794;2023-01-01T05:57:15;15.10;99.90
15969;DHT22;8085;53.472;9.794;2023-01-01T05:59:42;15.10;99.90
15969;DHT22;8085;53.472;9.794;2023-01-01T06:02:10;15.10;99.90
15969;DHT22;8085;53.472;9.794;2023-01-01T06:04:37;15.10;99.90
15969;DHT22;8085;53.472;9.794;2023-01-01T06:07:04;15.20;1.00
15969;DHT22;8085;53.472;9.794;2023-01-01T06:09:30;15.20;1.00
15969;DHT22;8085;53.472;9.794;2023-01-01T06:11:57;15.20;1.00
15969;DHT22;8085;53.472;9.794;2023-01-01T06:14:24;15.20;1.00
15969;DHT22;8085;53.472;9.794;2023-01-01T06:16:51;15.20;1.00
15969;DHT22;8085;53.472;9.794;2023-01-01T06:19:19;15.10;1.00
15969;DHT22;8085;53.472;9.794;2023-01-01T06:21:46;15.10;1.00
15969;DHT22;8085;53.472;9.794;2023-01-01T06:24:13;15.10;1.00
15969;DHT22;8085;53.472;9.794;2023-01-01T06:26:39;15.10;1.00
15969;DHT22;8085;53.472;9.794;2023-01-01T06:29:06;15.10;1.00
15969;DHT22;8085;53.472;9.794;2023-01-01T06:31:33;15.00;1.00
15969;DHT22;8085;53.472;9.794;2023-01-01T06:34:00;15.00;1.00
15969;DHT22;8085;53.472;9.794;2023-01-01T06:36:28;15.00;1.00
15969;DHT22;8085;53.472;9.794;2023-01-01T06:38:55;15.00;1.00
15969;DHT22;8085;53.472;9.794;2023-01-01T06:41:24;15.00;1.00
15969;DHT22;8085;53.472;9.794;2023-01-01T06:43:51;15.00;1.00
15969;DHT22;8085;53.472;9.794;2023-01-01T06:46:21;15.00;1.00
15969;DHT22;8085;53.472;9.794;2023-01-01T06:48:49;15.00;1.00
15969;DHT22;8085;53.472;9.794;2023-01-01T06:51:18;15.00;1.00
15969;DHT22;8085;53.472;9.794;2023-01-01T06:53:47;15.00;1.00
15969;DHT22;8085;53.472;9.794;2023-01-01T06:56:15;15.00;1.00
15969;DHT22;8085;53.472;9.794;2023-01-01T06:58:42;15.00;1.00
15969;DHT22;8085;53.472;9.794;2023-01-01T07:01:11;14.90;1.00
15969;DHT22;8085;53.472;9.794;2023-01-01T07:03:39;14.90;1.00
15969;DHT22;8085;53.472;9.794;2023-01-01T07:06:07;14.90;1.00
15969;DHT22;8085;53.472;9.794;2023-01-01T07:08:34;14.90;1.00
15969;DHT22;8085;53.472;9.794;2023-01-01T07:11:02;14.80;1.00
15969;DHT22;8085;53.472;9.794;2023-01-01T07:13:30;14.80;1.00
15969;DHT22;8085;53.472;9.794;2023-01-01T07:15:56;14.80;1.00
15969;DHT22;8085;53.472;9.794;2023-01-01T07:18:24;14.80;1.00
15969;DHT22;8085;53.472;9.794;2023-01-01T07:20:52;14.80;1.00
15969;DHT22;8085;53.472;9.794;2023-01-01T07:23:20;14.70;1.00
15969;DHT22;8085;53.472;9.794;2023-01-01T07:25:48;14.70;1.00
15969;DHT22;8085;53.472;9.794;2023-01-01T07:28:17;14.60;22.70
15969;DHT22;8085;53.472;9.794;2023-01-01T07:30:44;14.70;1.00
15969;DHT22;8085;53.472;9.794;2023-01-01T07:33:12;14.60;1.00
15969;DHT22;8085;53.472;9.794;2023-01-01T07:35:40;14.70;1.00
15969;DHT22;8085;53.472;9.794;2023-01-01T07:38:07;14.60;1.00
15969;DHT22;8085;53.472;9.794;2023-01-01T07:40:34;14.80;1.00
15969;DHT22;8085;53.472;9.794;2023-01-01T07:43:00;14.60;1.00
15969;DHT22;8085;53.472;9.794;2023-01-01T07:45:29;14.60;1.00
15969;DHT22;8085;53.472;9.794;2023-01-01T07:47:57;14.60;1.00
15969;DHT22;8085;53.472;9.794;2023-01-01T07:50:26;14.70;1.00
15969;DHT22;8085;53.472;9.794;2023-01-01T07:52:53;14.70;1.00
15969;DHT22;8085;53.472;9.794;2023-01-01T07:55:20;14.60;1.00
15969;DHT22;8085;53.472;9.794;2023-01-01T07:57:47;14.50;1.00
15969;DHT22;8085;53.472;9.794;2023-01-01T08:00:16;14.50;1.00
15969;DHT22;8085;53.472;9.794;2023-01-01T08:02:45;14.50;1.00
15969;DHT22;8085;53.472;9.794;2023-01-01T08:05:12;14.50;1.00
15969;DHT22;8085;53.472;9.794;2023-01-01T08:07:39;14.50;1.00
15969;DHT22;8085;53.472;9.794;2023-01-01T08:10:07;14.50;1.00
15969;DHT22;8085;53.472;9.794;2023-01-01T08:12:34;14.50;1.00
15969;DHT22;8085;53.472;9.794;2023-01-01T08:15:00;14.40;1.00
15969;DHT22;8085;53.472;9.794;2023-01-01T08:17:27;14.40;1.00
15969;DHT22;8085;53.472;9.794;2023-01-01T08:19:55;14.30;1.00
15969;DHT22;8085;53.472;9.794;2023-01-01T08:22:22;14.40;1.00
15969;DHT22;8085;53.472;9.794;2023-01-01T08:24:49;14.40;1.00
15969;DHT22;8085;53.472;9.794;2023-01-01T08:27:16;14.40;1.00
15969;DHT22;8085;53.472;9.794;2023-01-01T08:29:43;14.40;1.00
15969;DHT22;8085;53.472;9.794;2023-01-01T08:32:10;14.40;1.00
15969;DHT22;8085;53.472;9.794;2023-01-01T08:34:37;14.40;99.90
15969;DHT22;8085;53.472;9.794;2023-01-01T08:37:05;14.40;1.00
15969;DHT22;8085;53.472;9.794;2023-01-01T08:39:32;14.30;1.00
15969;DHT22;8085;53.472;9.794;2023-01-01T08:41:59;14.30;1.00
15969;DHT22;8085;53.472;9.794;2023-01-01T08:44:26;14.30;1.00
15969;DHT22;8085;53.472;9.794;2023-01-01T08:46:55;14.30;1.00
15969;DHT22;8085;53.472;9.794;2023-01-01T08:49:22;14.20;71.60
15969;DHT22;8085;53.472;9.794;2023-01-01T08:51:49;14.30;1.00
15969;DHT22;8085;53.472;9.794;2023-01-01T08:54:17;14.30;1.00
15969;DHT22;8085;53.472;9.794;2023-01-01T08:56:44;14.30;1.00
15969;DHT22;8085;53.472;9.794;2023-01-01T08:59:11;14.30;99.90
15969;DHT22;8085;53.472;9.794;2023-01-01T09:01:37;14.40;99.90
15969;DHT22;8085;53.472;9.794;2023-01-01T09:04:04;14.30;99.90
15969;DHT22;8085;53.472;9.794;2023-01-01T09:06:32;14.30;99.90
15969;DHT22;8085;53.472;9.794;2023-01-01T09:08:59;14.30;99.90
15969;DHT22;8085;53.472;9.794;2023-01-01T09:11:27;14.30;99.90
15969;DHT22;8085;53.472;9.794;2023-01-01T09:13:54;14.30;99.90
15969;DHT22;8085;53.472;9.794;2023-01-01T09:16:21;14.30;99.90
15969;DHT22;8085;53.472;9.794;2023-01-01T09:18:48;14.30;99.90
15969;DHT22;8085;53.472;9.794;2023-01-01T09:21:15;14.30;99.90
15969;DHT22;8085;53.472;9.794;2023-01-01T09:23:42;14.30;99.90
15969;DHT22;8085;53.472;9.794;2023-01-01T09:26:09;14.30;99.90
15969;DHT22;8085;53.472;9.794;2023-01-01T09:28:37;14.30;1.00
15969;DHT22;8085;53.472;9.794;2023-01-01T09:31:05;14.20;1.00
15969;DHT22;8085;53.472;9.794;2023-01-01T09:33:32;14.20;1.00
15969;DHT22;8085;53.472;9.794;2023-01-01T09:36:11;14.20;1.00
15969;DHT22;8085;53.472;9.794;2023-01-01T09:38:39;14.30;1.00
15969;DHT22;8085;53.472;9.794;2023-01-01T09:41:13;14.20;1.00
15969;DHT22;8085;53.472;9.794;2023-01-01T09:43:51;14.20;99.90
15969;DHT22;8085;53.472;9.794;2023-01-01T09:46:19;14.20;1.00
15969;DHT22;8085;53.472;9.794;2023-01-01T09:48:52;14.20;1.00
15969;DHT22;8085;53.472;9.794;2023-01-01T09:51:21;14.10;1.00
15969;DHT22;8085;53.472;9.794;2023-01-01T09:53:52;14.10;1.00
15969;DHT22;8085;53.472;9.794;2023-01-01T09:56:22;14.10;1.00
15969;DHT22;8085;53.472;9.794;2023-01-01T09:58:52;14.00;99.90
15969;DHT22;8085;53.472;9.794;2023-01-01T10:01:30;14.00;99.90
15969;DHT22;8085;53.472;9.794;2023-01-01T10:04:03;14.10;99.90
15969;DHT22;8085;53.472;9.794;2023-01-01T10:06:41;14.10;99.90
15969;DHT22;8085;53.472;9.794;2023-01-01T10:09:16;14.10;99.90
15969;DHT22;8085;53.472;9.794;2023-01-01T10:11:53;14.10;1.00
15969;DHT22;8085;53.472;9.794;2023-01-01T10:14:27;14.10;1.00
15969;DHT22;8085;53.472;9.794;2023-01-01T10:16:57;14.20;92.60
15969;DHT22;8085;53.472;9.794;2023-01-01T10:19:29;14.20;92.60
15969;DHT22;8085;53.472;9.794;2023-01-01T10:22:00;14.20;99.90
15969;DHT22;8085;53.472;9.794;2023-01-01T10:24:37;14.20;1.00
15969;DHT22;8085;53.472;9.794;2023-01-01T10:27:12;14.20;99.90
15969;DHT22;8085;53.472;9.794;2023-01-01T10:29:49;14.20;99.90
15969;DHT22;8085;53.472;9.794;2023-01-01T10:32:21;14.20;1.00
15969;DHT22;8085;53.472;9.794;2023-01-01T10:34:51;14.20;99.90
15969;DHT22;8085;53.472;9.794;2023-01-01T10:37:18;14.20;99.90
15969;DHT22;8085;53.472;9.794;2023-01-01T10:39:45;14.20;99.90
15969;DHT22;8085;53.472;9.794;2023-01-01T10:42:14;14.20;1.00
15969;DHT22;8085;53.472;9.794;2023-01-01T10:44:41;14.20;99.90
15969;DHT22;8085;53.472;9.794;2023-01-01T10:47:24;14.20;99.90
15969;DHT22;8085;53.472;9.794;2023-01-01T10:49:56;14.20;99.90
15969;DHT22;8085;53.472;9.794;2023-01-01T10:52:26;14.20;1.00
15969;DHT22;8085;53.472;9.794;2023-01-01T10:54:53;14.20;99.90
15969;DHT22;8085;53.472;9.794;2023-01-01T10:57:29;14.20;1.00
15969;DHT22;8085;53.472;9.794;2023-01-01T11:00:10;14.10;99.90
15969;DHT22;8085;53.472;9.794;2023-01-01T11:02:38;14.10;99.90
15969;DHT22;8085;53.472;9.794;2023-01-01T11:05:13;14.10;1.00
15969;DHT22;8085;53.472;9.794;2023-01-01T11:07:41;14.10;99.90
15969;DHT22;8085;53.472;9.794;2023-01-01T11:10:15;14.10;1.00
15969;DHT22;8085;53.472;9.794;2023-01-01T11:12:42;14.00;99.90
15969;DHT22;8085;53.472;9.794;2023-01-01T11:15:20;14.00;99.90
15969;DHT22;8085;53.472;9.794;2023-01-01T11:17:48;14.00;1.00
15969;DHT22;8085;53.472;9.794;2023-01-01T11:20:17;14.00;99.90
15969;DHT22;8085;53.472;9.794;2023-01-01T11:22:46;14.10;1.00
15969;DHT22;8085;53.472;9.794;2023-01-01T11:25:20;14.00;1.00
15969;DHT22;8085;53.472;9.794;2023-01-01T11:27:48;14.00;1.00
15969;DHT22;8085;53.472;9.794;2023-01-01T11:30:24;14.00;1.00
15969;DHT22;8085;53.472;9.794;2023-01-01T11:32:56;14.00;1.00
15969;DHT22;8085;53.472;9.794;2023-01-01T11:35:26;14.00;99.90
15969;DHT22;8085;53.472;9.794;2023-01-01T11:37:54;14.00;99.90
15969;DHT22;8085;53.472;9.794;2023-01-01T11:40:23;13.90;1.00
15969;DHT22;8085;53.472;9.794;2023-01-01T11:42:53;13.90;1.00
15969;DHT22;8085;53.472;9.794;2023-01-01T11:45:24;13.80;1.00
15969;DHT22;8085;53.472;9.794;2023-01-01T11:47:56;13.90;99.90
15969;DHT22;8085;53.472;9.794;2023-01-01T11:50:29;13.90;1.00
15969;DHT22;8085;53.472;9.794;2023-01-01T11:53:08;13.80;99.90
15969;DHT22;8085;53.472;9.794;2023-01-01T11:55:45;13.80;99.90
15969;DHT22;8085;53.472;9.794;2023-01-01T11:58:17;13.80;99.90
15969;DHT22;8085;53.472;9.794;2023-01-01T12:00:48;13.70;1.00
15969;DHT22;8085;53.472;9.794;2023-01-01T12:03:22;13.70;99.90
15969;DHT22;8085;53.472;9.794;2023-01-01T12:05:54;13.70;1.00
15969;DHT22;8085;53.472;9.794;2023-01-01T12:08:31;13.70;1.00
15969;DHT22;8085;53.472;9.794;2023-01-01T12:11:04;13.70;1.00
15969;DHT22;8085;53.472;9.794;2023-01-01T12:13:43;13.80;1.00
15969;DHT22;8085;53.472;9.794;2023-01-01T12:16:13;13.90;99.90
15969;DHT22;8085;53.472;9.794;2023-01-01T12:18:45;14.00;1.00
15969;DHT22;8085;53.472;9.794;2023-01-01T12:21:17;13.90;99.90
15969;DHT22;8085;53.472;9.794;2023-01-01T12:23:45;13.90;99.90
15969;DHT22;8085;53.472;9.794;2023-01-01T12:26:18;14.00;1.00
15969;DHT22;8085;53.472;9.794;2023-01-01T12:29:25;13.90;99.90
15969;DHT22;8085;53.472;9.794;2023-01-01T12:32:03;14.00;62.80
15969;DHT22;8085;53.472;9.794;2023-01-01T12:34:37;13.90;99.90
15969;DHT22;8085;53.472;9.794;2023-01-01T12:37:11;13.90;1.00
15969;DHT22;8085;53.472;9.794;2023-01-01T12:42:52;13.90;80.10
15969;DHT22;8085;53.472;9.794;2023-01-01T12:51:21;13.50;99.90
15969;DHT22;8085;53.472;9.794;2023-01-01T12:53:57;13.50;99.90
15969;DHT22;8085;53.472;9.794;2023-01-01T12:56:34;13.50;1.00
15969;DHT22;8085;53.472;9.794;2023-01-01T12:59:05;13.40;1.00
15969;DHT22;8085;53.472;9.794;2023-01-01T13:01:34;13.20;99.90
15969;DHT22;8085;53.472;9.794;2023-01-01T13:04:08;13.10;1.00
15969;DHT22;8085;53.472;9.794;2023-01-01T13:06:40;13.00;1.00
15969;DHT22;8085;53.472;9.794;2023-01-01T13:09:11;13.10;1.00
15969;DHT22;8085;53.472;9.794;2023-01-01T13:11:40;13.10;1.00
15969;DHT22;8085;53.472;9.794;2023-01-01T13:14:08;13.10;1.00
15969;DHT22;8085;53.472;9.794;2023-01-01T13:16:37;13.00;1.00
15969;DHT22;8085;53.472;9.794;2023-01-01T13:19:12;13.00;1.00
15969;DHT22;8085;53.472;9.794;2023-01-01T13:21:50;12.90;1.00
15969;DHT22;8085;53.472;9.794;2023-01-01T13:24:21;12.90;44.10
15969;DHT22;8085;53.472;9.794;2023-01-01T13:26:49;12.90;23.00
15969;DHT22;8085;53.472;9.794;2023-01-01T13:29:33;12.90;1.00
15969;DHT22;8085;53.472;9.794;2023-01-01T13:32:07;13.10;1.00
15969;DHT22;8085;53.472;9.794;2023-01-01T13:37:46;13.00;28.90
15969;DHT22;8085;53.472;9.794;2023-01-01T13:40:49;13.00;1.00
15969;DHT22;8085;53.472;9.794;2023-01-01T13:43:30;12.90;7.70
15969;DHT22;8085;53.472;9.794;2023-01-01T13:45:59;12.90;99.90
15969;DHT22;8085;53.472;9.794;2023-01-01T13:51:29;12.90;96.60
15969;DHT22;8085;53.472;9.794;2023-01-01T13:54:19;12.90;99.90
15969;DHT22;8085;53.472;9.794;2023-01-01T13:56:54;12.80;99.90
15969;DHT22;8085;53.472;9.794;2023-01-01T14:02:23;12.80;99.90
15969;DHT22;8085;53.472;9.794;2023-01-01T14:04:54;12.80;99.90
15969;DHT22;8085;53.472;9.794;2023-01-01T14:07:38;12.80;99.90
15969;DHT22;8085;53.472;9.794;2023-01-01T14:10:18;12.80;99.90
15969;DHT22;8085;53.472;9.794;2023-01-01T14:12:45;12.70;1.00
15969;DHT22;8085;53.472;9.794;2023-01-01T14:15:23;12.70;99.90
15969;DHT22;8085;53.472;9.794;2023-01-01T14:17:51;12.70;99.90
15969;DHT22;8085;53.472;9.794;2023-01-01T14:20:20;12.60;1.00
15969;DHT22;8085;53.472;9.794;2023-01-01T14:22:49;12.60;99.90
15969;DHT22;8085;53.472;9.794;2023-01-01T14:25:24;12.60;1.00
15969;DHT22;8085;53.472;9.794;2023-01-01T14:27:52;12.60;1.00
15969;DHT22;8085;53.472;9.794;2023-01-01T14:30:19;12.60;1.00
15969;DHT22;8085;53.472;9.794;2023-01-01T14:32:54;12.60;1.00
15969;DHT22;8085;53.472;9.794;2023-01-01T14:35:21;12.50;1.00
15969;DHT22;8085;53.472;9.794;2023-01-01T14:37:48;12.40;1.00
15969;DHT22;8085;53.472;9.794;2023-01-01T14:40:18;12.50;1.00
15969;DHT22;8085;53.472;9.794;2023-01-01T14:42:55;12.50;1.00
15969;DHT22;8085;53.472;9.794;2023-01-01T14:45:22;12.50;1.00
15969;DHT22;8085;53.472;9.794;2023-01-01T14:47:52;12.40;1.00
15969;DHT22;8085;53.472;9.794;2023-01-01T14:50:24;12.40;1.00
15969;DHT22;8085;53.472;9.794;2023-01-01T14:52:54;12.30;1.00
15969;DHT22;8085;53.472;9.794;2023-01-01T14:55:25;12.30;1.00
15969;DHT22;8085;53.472;9.794;2023-01-01T14:57:56;12.30;1.00
15969;DHT22;8085;53.472;9.794;2023-01-01T15:00:26;12.20;1.00
15969;DHT22;8085;53.472;9.794;2023-01-01T15:02:52;12.20;1.00
15969;DHT22;8085;53.472;9.794;2023-01-01T15:05:27;12.20;1.00
15969;DHT22;8085;53.472;9.794;2023-01-01T15:07:55;12.20;1.00
15969;DHT22;8085;53.472;9.794;2023-01-01T15:10:25;12.10;1.00
15969;DHT22;8085;53.472;9.794;2023-01-01T15:12:52;12.00;1.00
15969;DHT22;8085;53.472;9.794;2023-01-01T15:15:37;12.00;1.00
15969;DHT22;8085;53.472;9.794;2023-01-01T15:18:04;12.00;1.00
15969;DHT22;8085;53.472;9.794;2023-01-01T15:20:32;11.90;1.00
15969;DHT22;8085;53.472;9.794;2023-01-01T15:23:00;11.90;1.00
15969;DHT22;8085;53.472;9.794;2023-01-01T15:25:30;11.90;1.00
15969;DHT22;8085;53.472;9.794;2023-01-01T15:28:00;11.90;1.00
15969;DHT22;8085;53.472;9.794;2023-01-01T15:30:31;11.80;1.00
15969;DHT22;8085;53.472;9.794;2023-01-01T15:33:06;11.80;1.00
15969;DHT22;8085;53.472;9.794;2023-01-01T15:35:34;11.80;1.00
15969;DHT22;8085;53.472;9.794;2023-01-01T15:38:07;11.80;1.00
15969;DHT22;8085;53.472;9.794;2023-01-01T15:40:37;11.70;1.00
15969;DHT22;8085;53.472;9.794;2023-01-01T15:43:21;11.70;1.00
15969;DHT22;8085;53.472;9.794;2023-01-01T15:45:54;11.70;1.00
15969;DHT22;8085;53.472;9.794;2023-01-01T15:48:27;11.70;1.00
15969;DHT22;8085;53.472;9.794;2023-01-01T15:51:03;11.80;1.00
15969;DHT22;8085;53.472;9.794;2023-01-01T15:53:50;11.80;1.00
15969;DHT22;8085;53.472;9.794;2023-01-01T15:56:21;11.80;1.00
15969;DHT22;8085;53.472;9.794;2023-01-01T15:58:52;11.70;1.00
15969;DHT22;8085;53.472;9.794;2023-01-01T16:01:22;11.70;1.00
15969;DHT22;8085;53.472;9.794;2023-01-01T16:03:55;11.70;1.00
15969;DHT22;8085;53.472;9.794;2023-01-01T16:06:24;11.70;1.00
15969;DHT22;8085;53.472;9.794;2023-01-01T16:08:51;11.70;1.00
15969;DHT22;8085;53.472;9.794;2023-01-01T16:11:19;11.70;1.00
15969;DHT22;8085;53.472;9.794;2023-01-01T16:13:46;11.70;1.00
15969;DHT22;8085;53.472;9.794;2023-01-01T16:16:23;11.60;1.00
15969;DHT22;8085;53.472;9.794;2023-01-01T16:18:50;11.60;1.00
15969;DHT22;8085;53.472;9.794;2023-01-01T16:21:18;11.60;1.00
15969;DHT22;8085;53.472;9.794;2023-01-01T16:23:45;11.50;1.00
15969;DHT22;8085;53.472;9.794;2023-01-01T16:26:11;11.50;1.00
15969;DHT22;8085;53.472;9.794;2023-01-01T16:28:40;11.50;8.60
15969;DHT22;8085;53.472;9.794;2023-01-01T16:31:12;11.50;8.60
15969;DHT22;8085;53.472;9.794;2023-01-01T16:33:40;11.50;10.60
15969;DHT22;8085;53.472;9.794;2023-01-01T16:36:09;11.50;11.70